Westport, Wisconsin
Current Conditions -  °F | °C
As of 10:15 AM on Wednesday 22 Oct 2014 (Local Time) from KC29 Reporting Station
Scattered Clouds Scattered Clouds  
Wind Chill: 41°   Ceiling: Unl
Heat Index: 44°   Visibility: 7mi
Dew Point: 44°   Wind: 6mph
Humidity: 99%   Direction: 100°E
Pressure: 30.35"   Gusts: NA
Location:  43.1852°N, 89.4585°W
Report Text: KC29 221515Z AUTO 10005KT 7SM SCT001 07/07 A3035 RMK AO1 T00680067
Loading
Personal Weather Stations






























Interactive Weather Map
Tropical Storm Tracking
New forecast layout! Learn more

10-Day Weather Forecast

Advertisements
Track Severe Weather on mobile